Time;durP1;ratioP1;P1;durP2;ratioP2;P2;SDS_P1;SDS_P2;PMS_P1;PMS_P2;Temp;Humidity;BMP_temperature;BMP_pressure;BME280_temperature;BME280_humidity;BME280_pressure;Samples;Min_cycle;Max_cycle;Signal;HPM_P1;HPM_P2
2023/09/20 00:00:57;;;;;;;6.68;2.92;;;;;;;;;;4995296;28;20042;-67
2023/09/20 00:03:25;;;;;;;8.20;2.88;;;;;;;;;;4994655;28;20049;-67
2023/09/20 00:05:53;;;;;;;10.02;3.35;;;;;;;;;;4995134;28;20049;-67
2023/09/20 00:08:19;;;;;;;7.85;2.85;;;;;;;;;;4993940;28;20122;-67
2023/09/20 00:10:48;;;;;;;8.20;2.88;;;;;;;;;;4994872;28;20125;-67
2023/09/20 00:13:14;;;;;;;8.57;3.15;;;;;;;;;;4993978;28;20040;-67
2023/09/20 00:15:43;;;;;;;7.25;2.80;;;;;;;;;;4993654;28;20031;-67
2023/09/20 00:18:09;;;;;;;8.63;2.83;;;;;;;;;;4994006;28;20034;-67
2023/09/20 00:20:36;;;;;;;7.30;3.00;;;;;;;;;;4994879;28;20043;-67
2023/09/20 00:23:03;;;;;;;8.82;3.08;;;;;;;;;;5001412;28;20072;-67
2023/09/20 00:25:29;;;;;;;11.27;3.22;;;;;;;;;;4976556;28;20047;-67
2023/09/20 00:27:55;;;;;;;6.03;2.83;;;;;;;;;;4987121;28;20030;-67
2023/09/20 00:30:21;;;;;;;7.85;2.72;;;;;;;;;;4995324;28;20096;-67
2023/09/20 00:32:48;;;;;;;9.18;3.15;;;;;;;;;;4994352;28;20514;-67
2023/09/20 00:35:16;;;;;;;8.65;3.00;;;;;;;;;;4994429;28;20038;-67
2023/09/20 00:37:43;;;;;;;9.15;2.67;;;;;;;;;;4994017;28;20042;-67
2023/09/20 00:40:17;;;;;;;7.20;2.60;;;;;;;;;;4994436;28;20078;-67
2023/09/20 00:42:45;;;;;;;8.70;2.90;;;;;;;;;;4987243;28;20049;-67
2023/09/20 00:45:13;;;;;;;7.43;2.80;;;;;;;;;;4992808;28;20049;-67
2023/09/20 00:47:40;;;;;;;9.32;3.38;;;;;;;;;;4992761;28;20487;-67
2023/09/20 00:50:08;;;;;;;8.48;2.97;;;;;;;;;;4994048;28;20105;-67
2023/09/20 00:52:34;;;;;;;7.22;2.80;;;;;;;;;;4994294;28;20042;-67
2023/09/20 00:55:00;;;;;;;7.38;2.90;;;;;;;;;;4993444;28;20403;-67
2023/09/20 00:57:27;;;;;;;8.68;3.00;;;;;;;;;;4999211;28;20038;-67
2023/09/20 00:59:54;;;;;;;8.07;2.67;;;;;;;;;;4974499;28;20495;-67
2023/09/20 01:02:21;;;;;;;9.43;3.08;;;;;;;;;;4974557;28;20126;-67
2023/09/20 01:04:47;;;;;;;10.18;3.47;;;;;;;;;;4974120;28;20692;-67
2023/09/20 01:07:14;;;;;;;10.90;2.90;;;;;;;;;;4974133;28;20041;-67
2023/09/20 01:09:41;;;;;;;7.53;2.83;;;;;;;;;;4978153;28;20492;-67
2023/09/20 01:12:07;;;;;;;8.40;2.97;;;;;;;;;;5001584;28;20037;-67
2023/09/20 01:14:33;;;;;;;10.23;2.80;;;;;;;;;;4985601;28;20045;-67
2023/09/20 01:17:05;;;;;;;9.60;2.72;;;;;;;;;;4993380;28;20046;-67
2023/09/20 01:19:33;;;;;;;9.10;2.80;;;;;;;;;;4984201;28;20049;-67
2023/09/20 01:21:58;;;;;;;8.90;2.58;;;;;;;;;;4992340;28;20466;-67
2023/09/20 01:24:27;;;;;;;9.32;2.63;;;;;;;;;;4993301;28;20077;-67
2023/09/20 01:26:57;;;;;;;8.57;3.03;;;;;;;;;;4993245;28;20159;-67
2023/09/20 01:29:23;;;;;;;9.75;2.83;;;;;;;;;;4992596;28;20070;-67
2023/09/20 01:31:49;;;;;;;8.48;2.97;;;;;;;;;;4993162;28;20070;-67
2023/09/20 01:34:15;;;;;;;8.25;3.10;;;;;;;;;;4993068;28;20045;-67
2023/09/20 01:36:41;;;;;;;7.45;2.83;;;;;;;;;;4992623;28;20030;-67
2023/09/20 01:39:09;;;;;;;9.43;2.97;;;;;;;;;;4992123;28;20169;-67
2023/09/20 01:41:35;;;;;;;9.30;3.22;;;;;;;;;;4993459;28;20042;-67
2023/09/20 01:44:01;;;;;;;7.22;2.58;;;;;;;;;;4993292;28;20377;-67
2023/09/20 01:46:27;;;;;;;7.00;3.08;;;;;;;;;;4992352;28;20133;-67
2023/09/20 01:48:53;;;;;;;8.38;2.67;;;;;;;;;;4991877;28;20164;-66
2023/09/20 01:51:19;;;;;;;7.15;2.50;;;;;;;;;;4991525;28;20544;-66
2023/09/20 01:53:45;;;;;;;10.70;2.63;;;;;;;;;;4992922;28;20057;-66
2023/09/20 01:56:11;;;;;;;10.88;2.78;;;;;;;;;;4992765;28;20057;-66
2023/09/20 01:58:38;;;;;;;7.05;2.33;;;;;;;;;;4992694;28;20472;-66
2023/09/20 02:01:05;;;;;;;9.20;2.58;;;;;;;;;;4990888;28;20133;-67
2023/09/20 02:03:32;;;;;;;9.65;2.67;;;;;;;;;;4975422;28;20046;-67
2023/09/20 02:05:58;;;;;;;8.52;3.33;;;;;;;;;;4986986;28;20042;-66
2023/09/20 02:08:25;;;;;;;10.52;2.42;;;;;;;;;;4991677;28;20034;-67
2023/09/20 02:10:51;;;;;;;7.43;2.42;;;;;;;;;;4996293;28;20038;-66
2023/09/20 02:13:18;;;;;;;8.10;2.47;;;;;;;;;;4993715;28;20109;-66
2023/09/20 02:15:45;;;;;;;11.10;2.90;;;;;;;;;;4992568;28;20039;-66
2023/09/20 02:18:12;;;;;;;9.50;2.70;;;;;;;;;;4984836;28;20074;-66
2023/09/20 02:20:38;;;;;;;7.65;2.72;;;;;;;;;;4991464;28;20526;-66
2023/09/20 02:23:05;;;;;;;8.13;2.53;;;;;;;;;;4992797;28;20038;-66
2023/09/20 02:25:31;;;;;;;7.07;3.10;;;;;;;;;;4992437;28;20084;-66
2023/09/20 02:27:57;;;;;;;10.82;3.20;;;;;;;;;;4991251;28;20097;-67
2023/09/20 02:30:24;;;;;;;12.20;2.55;;;;;;;;;;4991091;28;20050;-67
2023/09/20 02:32:52;;;;;;;6.43;2.47;;;;;;;;;;4991552;28;20539;-67
2023/09/20 02:35:18;;;;;;;5.57;2.53;;;;;;;;;;4992595;28;20042;-67
2023/09/20 02:37:46;;;;;;;7.45;2.50;;;;;;;;;;4992037;28;20035;-67
2023/09/20 02:40:15;;;;;;;10.77;2.95;;;;;;;;;;4994972;28;20042;-67
2023/09/20 02:42:47;;;;;;;7.82;2.30;;;;;;;;;;4996465;28;20034;-67
2023/09/20 02:45:14;;;;;;;6.82;2.25;;;;;;;;;;4995984;28;20501;-67
2023/09/20 02:47:43;;;;;;;7.45;2.70;;;;;;;;;;4996356;28;20045;-67
2023/09/20 02:50:11;;;;;;;11.93;2.63;;;;;;;;;;4994423;28;20034;-67
2023/09/20 02:52:37;;;;;;;7.00;2.40;;;;;;;;;;4996056;28;20124;-67
2023/09/20 02:55:06;;;;;;;7.45;2.83;;;;;;;;;;4996119;28;20057;-67
2023/09/20 02:57:32;;;;;;;12.88;2.78;;;;;;;;;;4995949;28;20039;-67
2023/09/20 02:59:58;;;;;;;9.00;2.65;;;;;;;;;;4995462;28;20105;-67
2023/09/20 03:02:24;;;;;;;6.03;2.45;;;;;;;;;;4997631;28;20492;-67
2023/09/20 03:04:53;;;;;;;9.65;2.97;;;;;;;;;;4988742;28;20031;-67
2023/09/20 03:07:21;;;;;;;7.68;2.78;;;;;;;;;;4976301;28;20055;-67
2023/09/20 03:09:48;;;;;;;9.82;2.67;;;;;;;;;;5019641;23;20108;-70
2023/09/20 03:12:14;;;;;;;7.13;2.63;;;;;;;;;;5000056;28;20044;-70
2023/09/20 03:14:41;;;;;;;8.77;2.65;;;;;;;;;;4995926;28;20042;-70
2023/09/20 03:17:07;;;;;;;7.63;3.05;;;;;;;;;;4994746;28;20121;-70
2023/09/20 03:19:34;;;;;;;9.98;2.72;;;;;;;;;;4995392;28;20104;-71
2023/09/20 03:22:01;;;;;;;10.70;2.85;;;;;;;;;;4995984;28;20046;-71
2023/09/20 03:24:27;;;;;;;5.72;2.55;;;;;;;;;;4994216;28;20129;-71
2023/09/20 03:26:54;;;;;;;9.10;2.75;;;;;;;;;;4994692;28;20038;-71
2023/09/20 03:29:23;;;;;;;9.55;3.55;;;;;;;;;;4995522;28;20096;-71
2023/09/20 03:31:49;;;;;;;9.10;3.60;;;;;;;;;;4995533;28;20050;-71
2023/09/20 03:34:15;;;;;;;6.90;2.45;;;;;;;;;;4995035;28;20141;-71
2023/09/20 03:36:41;;;;;;;9.07;3.10;;;;;;;;;;4994369;28;20042;-71
2023/09/20 03:39:11;;;;;;;7.40;3.45;;;;;;;;;;4995040;28;20412;-71
2023/09/20 03:41:38;;;;;;;10.32;2.58;;;;;;;;;;4995766;28;20038;-71
2023/09/20 03:44:05;;;;;;;8.60;2.70;;;;;;;;;;4995164;28;20061;-71
2023/09/20 03:46:32;;;;;;;9.73;2.67;;;;;;;;;;4993934;28;20496;-72
2023/09/20 03:48:59;;;;;;;7.18;3.08;;;;;;;;;;4999455;28;20042;-71
2023/09/20 03:51:25;;;;;;;7.38;2.85;;;;;;;;;;4994431;28;20078;-71
2023/09/20 03:53:51;;;;;;;5.45;2.28;;;;;;;;;;4995607;28;20136;-71
2023/09/20 03:56:17;;;;;;;9.02;3.05;;;;;;;;;;4994586;28;20045;-71
2023/09/20 03:58:43;;;;;;;6.32;2.90;;;;;;;;;;4994919;28;20133;-71
2023/09/20 04:01:10;;;;;;;6.35;2.70;;;;;;;;;;4993967;28;20117;-71
2023/09/20 04:03:36;;;;;;;8.85;2.72;;;;;;;;;;4991756;28;20092;-71
2023/09/20 04:06:02;;;;;;;10.00;3.15;;;;;;;;;;4993673;28;20035;-71
2023/09/20 04:08:28;;;;;;;5.70;2.75;;;;;;;;;;4993984;28;20046;-71
2023/09/20 04:10:56;;;;;;;5.38;2.50;;;;;;;;;;4995887;28;20041;-71
2023/09/20 04:13:22;;;;;;;7.18;2.78;;;;;;;;;;4996917;28;20053;-71
2023/09/20 04:15:49;;;;;;;7.45;2.92;;;;;;;;;;4994593;28;20081;-71
2023/09/20 04:18:15;;;;;;;5.55;2.85;;;;;;;;;;4994546;28;20440;-71
2023/09/20 04:20:42;;;;;;;7.28;2.97;;;;;;;;;;4994361;28;20488;-71
2023/09/20 04:23:09;;;;;;;9.77;3.42;;;;;;;;;;4994953;28;20108;-71
2023/09/20 04:25:35;;;;;;;9.90;3.47;;;;;;;;;;4994097;28;20476;-71
2023/09/20 04:28:01;;;;;;;7.47;2.80;;;;;;;;;;4993780;28;20089;-71
2023/09/20 04:30:29;;;;;;;5.63;2.90;;;;;;;;;;4993236;28;20049;-71
2023/09/20 04:32:55;;;;;;;5.85;2.80;;;;;;;;;;4994175;28;20053;-71
2023/09/20 04:35:22;;;;;;;9.02;3.33;;;;;;;;;;4995085;28;20038;-71
2023/09/20 04:37:48;;;;;;;8.30;2.67;;;;;;;;;;5001305;28;20117;-71
2023/09/20 04:40:14;;;;;;;7.85;2.75;;;;;;;;;;4994001;28;20449;-70
2023/09/20 04:42:41;;;;;;;8.15;2.88;;;;;;;;;;4994384;28;20046;-71
2023/09/20 04:45:08;;;;;;;8.77;3.22;;;;;;;;;;4997400;28;20053;-71
2023/09/20 04:47:36;;;;;;;10.38;3.03;;;;;;;;;;4993849;28;20120;-71
2023/09/20 04:50:02;;;;;;;8.10;3.00;;;;;;;;;;4995512;28;20046;-71
2023/09/20 04:52:30;;;;;;;7.72;3.17;;;;;;;;;;4995234;28;20077;-71
2023/09/20 04:54:56;;;;;;;7.43;2.85;;;;;;;;;;4994194;28;20042;-71
2023/09/20 04:57:22;;;;;;;6.50;2.97;;;;;;;;;;4993468;28;20042;-71
2023/09/20 04:59:50;;;;;;;7.25;2.80;;;;;;;;;;4993889;28;20046;-71
2023/09/20 05:02:16;;;;;;;7.05;2.83;;;;;;;;;;4994926;28;20039;-71
2023/09/20 05:04:42;;;;;;;12.05;3.03;;;;;;;;;;4993939;28;20045;-71
2023/09/20 05:07:09;;;;;;;8.75;2.65;;;;;;;;;;4993443;28;20034;-71
2023/09/20 05:09:36;;;;;;;8.90;2.72;;;;;;;;;;4992735;28;20038;-71
2023/09/20 05:12:02;;;;;;;9.55;3.22;;;;;;;;;;4994466;28;20114;-71
2023/09/20 05:14:28;;;;;;;5.82;3.00;;;;;;;;;;4993361;28;20096;-71
2023/09/20 05:16:54;;;;;;;10.70;3.22;;;;;;;;;;4993043;28;20030;-71
2023/09/20 05:19:22;;;;;;;5.72;2.72;;;;;;;;;;4993743;28;20049;-71
2023/09/20 05:21:48;;;;;;;6.32;2.83;;;;;;;;;;4994421;28;20053;-71
2023/09/20 05:24:14;;;;;;;7.13;2.70;;;;;;;;;;4993224;28;20403;-71
2023/09/20 05:26:40;;;;;;;7.07;2.88;;;;;;;;;;4992842;28;20038;-71
2023/09/20 05:29:06;;;;;;;8.18;2.90;;;;;;;;;;4993443;28;20109;-71
2023/09/20 05:31:33;;;;;;;7.47;2.72;;;;;;;;;;4991016;28;20050;-71
2023/09/20 05:33:59;;;;;;;5.60;2.55;;;;;;;;;;4993519;28;20038;-71
2023/09/20 05:36:27;;;;;;;5.13;2.30;;;;;;;;;;4992805;28;20100;-71
2023/09/20 05:38:53;;;;;;;6.63;2.70;;;;;;;;;;4993501;28;20034;-71
2023/09/20 05:41:19;;;;;;;6.05;2.40;;;;;;;;;;4992436;28;20038;-71
2023/09/20 05:43:45;;;;;;;5.05;2.40;;;;;;;;;;4992205;28;20046;-71
2023/09/20 05:46:14;;;;;;;6.53;2.58;;;;;;;;;;4992732;28;20049;-70
2023/09/20 05:48:41;;;;;;;6.80;2.60;;;;;;;;;;4992799;28;20049;-70
2023/09/20 05:51:10;;;;;;;6.70;2.50;;;;;;;;;;4992683;28;20510;-70
2023/09/20 05:53:36;;;;;;;5.78;2.42;;;;;;;;;;4993124;28;20038;-70
2023/09/20 05:56:11;;;;;;;5.65;2.35;;;;;;;;;;4992580;28;20045;-70
2023/09/20 05:58:38;;;;;;;7.47;2.72;;;;;;;;;;4997772;28;20053;-71
2023/09/20 06:01:05;;;;;;;8.02;2.17;;;;;;;;;;4996360;28;20029;-71
2023/09/20 06:03:31;;;;;;;6.32;2.28;;;;;;;;;;4998581;28;20050;-71
2023/09/20 06:05:57;;;;;;;7.60;2.78;;;;;;;;;;4992891;28;20049;-71
2023/09/20 06:08:23;;;;;;;7.80;2.60;;;;;;;;;;4996354;28;20042;-71
2023/09/20 06:10:49;;;;;;;7.45;2.40;;;;;;;;;;4992708;28;20043;-70
2023/09/20 06:13:15;;;;;;;5.22;2.30;;;;;;;;;;4992455;28;20480;-70
2023/09/20 06:15:41;;;;;;;6.65;2.92;;;;;;;;;;4992758;28;20038;-71
2023/09/20 06:18:08;;;;;;;6.75;2.60;;;;;;;;;;4992444;28;20065;-71
2023/09/20 06:20:36;;;;;;;7.03;2.70;;;;;;;;;;4992398;28;20054;-72
2023/09/20 06:23:03;;;;;;;9.18;2.88;;;;;;;;;;4992469;28;20042;-71
2023/09/20 06:25:29;;;;;;;10.02;2.97;;;;;;;;;;4992666;28;20038;-71
2023/09/20 06:27:55;;;;;;;6.78;3.00;;;;;;;;;;4992429;28;20121;-71
2023/09/20 06:30:22;;;;;;;7.20;3.17;;;;;;;;;;4998907;28;20045;-71
2023/09/20 06:32:49;;;;;;;5.95;3.00;;;;;;;;;;4987840;28;20039;-71
2023/09/20 06:35:15;;;;;;;8.60;3.00;;;;;;;;;;4987964;28;20401;-72
2023/09/20 06:37:46;;;;;;;8.20;2.97;;;;;;;;;;4991022;28;20039;-72
2023/09/20 06:40:22;;;;;;;7.47;3.30;;;;;;;;;;4991567;28;20046;-71
2023/09/20 06:42:51;;;;;;;10.73;3.33;;;;;;;;;;4987911;28;20042;-71
2023/09/20 06:45:18;;;;;;;8.45;2.88;;;;;;;;;;4992398;28;20085;-71
2023/09/20 06:47:45;;;;;;;6.63;2.97;;;;;;;;;;4991464;28;20114;-71
2023/09/20 06:50:13;;;;;;;5.82;3.00;;;;;;;;;;4991469;28;20057;-71
2023/09/20 06:52:39;;;;;;;5.60;2.92;;;;;;;;;;4991712;28;20050;-71
2023/09/20 06:55:05;;;;;;;7.38;3.00;;;;;;;;;;4992375;28;20127;-71
2023/09/20 06:57:31;;;;;;;10.10;3.10;;;;;;;;;;4991370;28;20058;-71
2023/09/20 06:59:57;;;;;;;8.45;3.20;;;;;;;;;;4990521;28;20034;-71
2023/09/20 07:02:24;;;;;;;8.75;3.10;;;;;;;;;;4992174;28;20034;-71
2023/09/20 07:04:50;;;;;;;7.47;3.13;;;;;;;;;;4992279;28;20038;-71
2023/09/20 07:07:17;;;;;;;8.10;2.97;;;;;;;;;;4991217;28;20045;-71
2023/09/20 07:09:43;;;;;;;6.85;3.60;;;;;;;;;;4992716;28;20069;-71
2023/09/20 07:12:09;;;;;;;7.88;3.10;;;;;;;;;;4990174;28;20496;-71
2023/09/20 07:14:35;;;;;;;7.72;3.10;;;;;;;;;;4992386;28;20049;-71
2023/09/20 07:17:03;;;;;;;13.20;3.10;;;;;;;;;;4990141;28;20496;-71
2023/09/20 07:19:29;;;;;;;9.32;3.08;;;;;;;;;;4991000;28;20042;-71
2023/09/20 07:21:56;;;;;;;8.93;3.22;;;;;;;;;;4990859;28;20038;-70
2023/09/20 07:24:25;;;;;;;4.95;2.60;;;;;;;;;;4992815;28;20042;-70
2023/09/20 07:26:52;;;;;;;6.68;2.88;;;;;;;;;;4995252;28;20034;-71
2023/09/20 07:29:18;;;;;;;8.38;3.30;;;;;;;;;;4995382;28;20117;-71
2023/09/20 07:31:45;;;;;;;8.23;2.90;;;;;;;;;;4995337;28;20049;-71
2023/09/20 07:34:13;;;;;;;5.43;2.70;;;;;;;;;;4993928;28;20038;-71
2023/09/20 07:36:49;;;;;;;7.10;2.80;;;;;;;;;;4994667;28;20038;-72
2023/09/20 07:39:18;;;;;;;10.32;3.17;;;;;;;;;;4995390;28;20088;-71
2023/09/20 07:41:46;;;;;;;9.90;3.15;;;;;;;;;;4994025;28;20053;-71
2023/09/20 07:44:13;;;;;;;10.77;2.65;;;;;;;;;;4994228;28;20042;-71
2023/09/20 07:46:39;;;;;;;7.25;3.10;;;;;;;;;;4993428;28;20392;-71
2023/09/20 07:49:12;;;;;;;8.38;2.92;;;;;;;;;;4994527;28;20121;-71
2023/09/20 07:51:39;;;;;;;7.80;2.63;;;;;;;;;;4993669;28;20038;-71
2023/09/20 07:54:09;;;;;;;6.95;2.45;;;;;;;;;;4994317;28;20066;-71
2023/09/20 07:56:34;;;;;;;7.93;2.97;;;;;;;;;;4993315;28;20047;-71
2023/09/20 07:59:03;;;;;;;6.93;2.55;;;;;;;;;;4994989;28;20081;-71
2023/09/20 08:01:29;;;;;;;7.43;3.15;;;;;;;;;;4985163;28;20050;-70
2023/09/20 08:03:59;;;;;;;7.40;3.00;;;;;;;;;;4987406;28;20038;-70
2023/09/20 08:06:29;;;;;;;5.38;2.75;;;;;;;;;;4986686;28;20108;-70
2023/09/20 08:08:58;;;;;;;5.70;2.78;;;;;;;;;;4993144;28;20503;-70
2023/09/20 08:11:24;;;;;;;5.40;2.50;;;;;;;;;;4992996;28;20042;-70
2023/09/20 08:13:51;;;;;;;6.05;2.63;;;;;;;;;;4993331;28;20073;-71
2023/09/20 08:16:18;;;;;;;6.35;2.80;;;;;;;;;;4994015;28;20047;-70
2023/09/20 08:21:29;;;;;;;7.75;2.70;;;;;;;;;;4993969;28;20058;-70
2023/09/20 09:00:19;;;;;;;4.18;2.10;;;;;;;;;;4993823;28;20050;-71
2023/09/20 09:02:46;;;;;;;4.93;2.20;;;;;;;;;;4993941;28;20176;-71
2023/09/20 09:05:15;;;;;;;6.07;2.50;;;;;;;;;;4992694;28;20096;-71
2023/09/20 09:07:41;;;;;;;7.45;2.50;;;;;;;;;;4991969;28;20414;-72
2023/09/20 09:10:09;;;;;;;5.68;2.60;;;;;;;;;;5011090;22;20042;-66
2023/09/20 09:12:34;;;;;;;4.38;2.53;;;;;;;;;;5007600;28;20042;-66
2023/09/20 09:15:01;;;;;;;6.25;2.30;;;;;;;;;;4999863;28;20041;-66
2023/09/20 09:17:27;;;;;;;2.88;1.85;;;;;;;;;;4988034;28;20563;-66
2023/09/20 09:19:53;;;;;;;6.25;2.40;;;;;;;;;;4988379;28;20035;-66
2023/09/20 09:22:19;;;;;;;5.07;2.17;;;;;;;;;;4982219;28;20045;-66
2023/09/20 09:24:48;;;;;;;4.68;2.20;;;;;;;;;;4991265;28;20050;-66
2023/09/20 09:27:15;;;;;;;7.00;2.47;;;;;;;;;;4983854;28;20126;-66
2023/09/20 09:29:44;;;;;;;5.38;2.33;;;;;;;;;;4980063;28;20126;-66
2023/09/20 09:32:11;;;;;;;4.15;2.03;;;;;;;;;;4992391;28;20038;-66
2023/09/20 09:34:43;;;;;;;4.63;2.30;;;;;;;;;;4990233;28;20058;-66
2023/09/20 09:37:10;;;;;;;4.75;2.10;;;;;;;;;;4977280;28;20065;-66
2023/09/20 09:39:36;;;;;;;3.17;2.03;;;;;;;;;;4985654;28;20034;-66
2023/09/20 09:42:03;;;;;;;4.47;2.10;;;;;;;;;;4990605;28;20038;-67
2023/09/20 09:44:29;;;;;;;7.20;2.50;;;;;;;;;;4997267;28;20153;-67
2023/09/20 09:46:55;;;;;;;4.68;1.95;;;;;;;;;;4989889;28;20575;-67
2023/09/20 09:49:24;;;;;;;5.80;2.28;;;;;;;;;;4976229;28;20043;-67
2023/09/20 09:51:51;;;;;;;5.55;1.98;;;;;;;;;;4985192;28;20054;-67
2023/09/20 09:54:18;;;;;;;7.15;2.47;;;;;;;;;;4982205;28;20134;-67
2023/09/20 09:56:44;;;;;;;2.80;2.30;;;;;;;;;;4981056;28;20085;-67
2023/09/20 09:59:10;;;;;;;3.80;2.10;;;;;;;;;;4973129;28;20118;-67
2023/09/20 10:01:40;;;;;;;5.03;2.10;;;;;;;;;;4976431;28;20081;-68
2023/09/20 10:04:17;;;;;;;4.88;2.00;;;;;;;;;;4975766;28;20495;-66
2023/09/20 10:06:52;;;;;;;5.90;2.35;;;;;;;;;;4980521;28;20053;-66
2023/09/20 10:09:20;;;;;;;3.85;2.10;;;;;;;;;;4985658;28;20053;-67
2023/09/20 10:11:47;;;;;;;7.78;2.38;;;;;;;;;;4991707;28;20396;-67
2023/09/20 10:14:14;;;;;;;4.25;2.13;;;;;;;;;;4991549;28;20092;-67
2023/09/20 10:16:43;;;;;;;5.63;2.53;;;;;;;;;;4987086;28;20034;-67
2023/09/20 10:19:10;;;;;;;3.50;2.10;;;;;;;;;;4979173;28;20062;-67
2023/09/20 10:21:39;;;;;;;6.30;2.20;;;;;;;;;;4980400;28;20046;-67
2023/09/20 10:24:07;;;;;;;5.07;2.42;;;;;;;;;;4987479;28;20038;-67
2023/09/20 10:26:40;;;;;;;3.83;2.13;;;;;;;;;;4991273;28;20042;-67
2023/09/20 10:29:24;;;;;;;5.05;2.20;;;;;;;;;;4990599;28;20041;-67
2023/09/20 10:31:53;;;;;;;3.47;1.92;;;;;;;;;;4987550;28;20043;-66
2023/09/20 10:34:21;;;;;;;4.65;2.30;;;;;;;;;;4982233;28;20049;-66
2023/09/20 10:36:51;;;;;;;4.82;2.15;;;;;;;;;;4979076;28;20062;-66
2023/09/20 10:39:17;;;;;;;5.85;2.40;;;;;;;;;;4976346;28;20034;-66
2023/09/20 10:41:43;;;;;;;4.63;2.42;;;;;;;;;;4981217;28;20038;-66
2023/09/20 10:44:26;;;;;;;5.38;2.50;;;;;;;;;;4973105;28;20046;-66
2023/09/20 10:46:53;;;;;;;5.47;2.40;;;;;;;;;;4976555;28;20101;-66
2023/09/20 10:49:40;;;;;;;7.63;2.38;;;;;;;;;;4986043;28;20049;-66
2023/09/20 10:52:06;;;;;;;6.93;2.50;;;;;;;;;;4973002;28;20121;-66
2023/09/20 10:54:36;;;;;;;6.15;2.13;;;;;;;;;;4983377;28;20066;-66
2023/09/20 10:57:04;;;;;;;4.38;2.10;;;;;;;;;;4972900;28;20039;-66
2023/09/20 10:59:31;;;;;;;4.50;2.20;;;;;;;;;;4979343;28;20058;-66
2023/09/20 11:02:00;;;;;;;3.72;2.15;;;;;;;;;;4987781;28;20046;-67
2023/09/20 11:04:26;;;;;;;5.57;2.70;;;;;;;;;;4991702;28;20133;-67
2023/09/20 11:06:53;;;;;;;5.75;2.30;;;;;;;;;;4992553;28;20038;-67
2023/09/20 11:09:23;;;;;;;5.43;2.22;;;;;;;;;;4979600;28;20034;-67
2023/09/20 11:11:50;;;;;;;4.65;2.30;;;;;;;;;;4976888;28;20055;-67
2023/09/20 11:14:18;;;;;;;5.60;2.38;;;;;;;;;;4990073;28;20038;-67
2023/09/20 11:16:44;;;;;;;6.90;2.53;;;;;;;;;;4986736;28;20053;-66
2023/09/20 11:19:14;;;;;;;3.75;2.00;;;;;;;;;;4978863;28;20035;-67
2023/09/20 11:21:43;;;;;;;4.07;1.88;;;;;;;;;;4974863;28;20039;-67
2023/09/20 11:24:10;;;;;;;4.93;2.38;;;;;;;;;;4980943;28;20034;-67
2023/09/20 11:26:37;;;;;;;2.88;1.95;;;;;;;;;;4982433;28;20046;-67
2023/09/20 11:29:06;;;;;;;6.60;2.47;;;;;;;;;;4985125;28;20038;-66
2023/09/20 11:31:35;;;;;;;4.53;2.20;;;;;;;;;;4975895;28;20042;-66
2023/09/20 11:34:03;;;;;;;4.18;2.10;;;;;;;;;;4989506;28;20043;-66
2023/09/20 11:36:30;;;;;;;4.50;2.00;;;;;;;;;;4982547;28;20133;-66
2023/09/20 11:38:55;;;;;;;5.68;2.63;;;;;;;;;;4986609;28;20480;-66
2023/09/20 11:41:23;;;;;;;5.07;2.00;;;;;;;;;;4986157;28;20124;-66
2023/09/20 11:43:49;;;;;;;3.30;1.88;;;;;;;;;;4982701;28;20396;-66
2023/09/20 11:46:17;;;;;;;4.55;2.20;;;;;;;;;;4979456;28;20543;-65
2023/09/20 11:48:43;;;;;;;3.90;2.20;;;;;;;;;;4975910;28;20038;-65
2023/09/20 11:51:10;;;;;;;4.68;2.28;;;;;;;;;;4984444;28;20519;-65
2023/09/20 11:53:36;;;;;;;4.85;2.50;;;;;;;;;;4991554;28;20042;-65
2023/09/20 11:56:03;;;;;;;4.30;2.17;;;;;;;;;;4987544;28;20038;-65
2023/09/20 11:58:33;;;;;;;4.88;2.38;;;;;;;;;;4984914;28;20066;-65
2023/09/20 12:01:03;;;;;;;4.90;2.58;;;;;;;;;;4979797;28;20045;-65
2023/09/20 12:03:29;;;;;;;3.67;2.33;;;;;;;;;;4983338;28;20046;-65
2023/09/20 12:05:55;;;;;;;4.53;2.50;;;;;;;;;;4983333;28;20042;-65
2023/09/20 12:08:21;;;;;;;5.22;3.20;;;;;;;;;;4975002;28;20098;-65
2023/09/20 12:10:47;;;;;;;5.10;2.78;;;;;;;;;;4978109;28;20043;-65
2023/09/20 12:13:13;;;;;;;4.53;2.45;;;;;;;;;;4989534;28;20123;-66
2023/09/20 12:15:42;;;;;;;4.80;2.65;;;;;;;;;;4979429;28;20042;-66
2023/09/20 12:18:13;;;;;;;7.38;2.78;;;;;;;;;;4974064;28;20039;-65
2023/09/20 12:20:39;;;;;;;;;;;;;;;;;;4987455;28;20057;-66
2023/09/20 12:23:06;;;;;;;3.75;2.63;;;;;;;;;;4984030;28;20008;-65
2023/09/20 12:25:32;;;;;;;6.15;3.10;;;;;;;;;;4976327;28;20046;-66
2023/09/20 12:27:58;;;;;;;5.90;2.33;;;;;;;;;;4976592;28;20039;-67
2023/09/20 12:30:28;;;;;;;4.30;2.55;;;;;;;;;;4985183;28;20058;-66
2023/09/20 12:32:56;;;;;;;4.93;2.58;;;;;;;;;;4975250;28;20076;-67
2023/09/20 12:35:23;;;;;;;5.07;2.38;;;;;;;;;;4982294;28;20050;-67
2023/09/20 12:37:49;;;;;;;4.07;2.40;;;;;;;;;;4974967;28;20117;-67
2023/09/20 12:40:16;;;;;;;5.18;2.78;;;;;;;;;;4990309;28;20124;-67
2023/09/20 12:42:43;;;;;;;5.60;2.42;;;;;;;;;;4985620;28;20573;-67
2023/09/20 12:45:09;;;;;;;3.33;2.08;;;;;;;;;;4973897;28;20508;-67
2023/09/20 12:47:36;;;;;;;5.63;2.40;;;;;;;;;;4983000;28;20103;-67
2023/09/20 12:50:03;;;;;;;5.28;2.60;;;;;;;;;;4997765;28;20041;-67
2023/09/20 12:52:29;;;;;;;4.45;2.05;;;;;;;;;;4981614;28;20065;-67
2023/09/20 12:54:55;;;;;;;4.05;2.42;;;;;;;;;;4977953;28;20501;-67
2023/09/20 12:57:25;;;;;;;4.97;2.30;;;;;;;;;;4973778;28;20497;-67
2023/09/20 12:59:51;;;;;;;5.80;2.00;;;;;;;;;;4974444;28;20035;-67
2023/09/20 13:02:17;;;;;;;3.92;2.03;;;;;;;;;;4980027;28;20519;-67
2023/09/20 13:04:43;;;;;;;3.60;2.03;;;;;;;;;;4983750;28;20044;-67
2023/09/20 13:07:09;;;;;;;5.63;2.30;;;;;;;;;;4979830;28;20502;-67
2023/09/20 13:09:35;;;;;;;4.25;2.05;;;;;;;;;;4981948;28;20062;-67
2023/09/20 13:12:01;;;;;;;5.38;2.63;;;;;;;;;;4976230;28;20134;-67
2023/09/20 13:14:30;;;;;;;5.20;2.22;;;;;;;;;;4986083;28;20188;-67
2023/09/20 13:16:56;;;;;;;5.00;1.90;;;;;;;;;;4981590;28;20034;-67
2023/09/20 13:19:22;;;;;;;5.55;1.92;;;;;;;;;;4982802;28;20463;-67
2023/09/20 13:21:48;;;;;;;4.20;1.90;;;;;;;;;;4973222;28;20137;-67
2023/09/20 13:24:15;;;;;;;4.10;2.05;;;;;;;;;;4991130;28;20149;-67
2023/09/20 13:26:43;;;;;;;4.63;2.00;;;;;;;;;;4988937;28;20051;-66
2023/09/20 13:29:11;;;;;;;4.00;2.03;;;;;;;;;;4973802;28;20503;-66
2023/09/20 13:31:40;;;;;;;5.60;1.73;;;;;;;;;;4973442;28;20053;-66
2023/09/20 13:34:14;;;;;;;2.97;1.80;;;;;;;;;;4983868;28;20118;-66
2023/09/20 13:36:40;;;;;;;3.58;1.88;;;;;;;;;;4982024;28;20117;-66
2023/09/20 13:39:05;;;;;;;3.20;2.00;;;;;;;;;;4973852;28;20109;-66
2023/09/20 13:41:31;;;;;;;3.33;1.50;;;;;;;;;;4974229;28;20038;-66
2023/09/20 13:43:57;;;;;;;3.85;1.40;;;;;;;;;;4981416;28;20045;-66
2023/09/20 13:46:25;;;;;;;2.45;1.60;;;;;;;;;;4973116;28;20046;-66
2023/09/20 13:48:51;;;;;;;3.25;1.73;;;;;;;;;;4984497;28;20458;-66
2023/09/20 13:51:17;;;;;;;4.13;1.80;;;;;;;;;;4983942;28;20049;-66
2023/09/20 13:53:44;;;;;;;4.53;1.80;;;;;;;;;;4988312;28;20122;-66
2023/09/20 13:56:11;;;;;;;3.90;1.38;;;;;;;;;;4983041;28;20081;-66
2023/09/20 13:58:37;;;;;;;3.38;1.70;;;;;;;;;;4986292;28;20048;-66
2023/09/20 14:01:05;;;;;;;4.05;1.83;;;;;;;;;;4981291;28;20456;-66
2023/09/20 14:03:34;;;;;;;5.53;2.13;;;;;;;;;;4991025;28;20042;-66
2023/09/20 14:06:01;;;;;;;3.33;1.60;;;;;;;;;;4991645;28;20189;-66
2023/09/20 14:08:27;;;;;;;8.68;1.60;;;;;;;;;;4993662;28;20050;-66
2023/09/20 14:10:53;;;;;;;4.55;1.83;;;;;;;;;;4983624;28;20039;-66
2023/09/20 14:13:19;;;;;;;2.92;1.80;;;;;;;;;;4988101;28;20416;-66
2023/09/20 14:15:45;;;;;;;3.00;1.65;;;;;;;;;;5011430;23;20093;-71
2023/09/20 14:18:11;;;;;;;4.70;2.03;;;;;;;;;;5003957;28;20685;-71
2023/09/20 14:20:42;;;;;;;3.45;1.63;;;;;;;;;;5010960;28;20041;-70
2023/09/20 14:23:08;;;;;;;3.95;1.95;;;;;;;;;;5008729;28;20450;-70
2023/09/20 14:25:35;;;;;;;4.20;1.52;;;;;;;;;;5000657;28;20049;-71
2023/09/20 14:28:01;;;;;;;3.13;1.70;;;;;;;;;;5008691;28;20045;-70
2023/09/20 14:30:27;;;;;;;3.28;1.63;;;;;;;;;;5010627;28;20100;-70
2023/09/20 14:32:54;;;;;;;3.50;1.50;;;;;;;;;;5012002;28;20038;-71
2023/09/20 14:35:20;;;;;;;3.42;1.75;;;;;;;;;;5014594;28;20041;-71
2023/09/20 14:37:48;;;;;;;3.03;1.70;;;;;;;;;;5015277;28;20030;-71
2023/09/20 14:40:17;;;;;;;3.15;1.65;;;;;;;;;;5012529;28;20071;-71
2023/09/20 14:42:47;;;;;;;3.60;1.55;;;;;;;;;;5001683;28;20045;-71
2023/09/20 14:45:16;;;;;;;3.78;1.63;;;;;;;;;;5014808;28;20034;-71
2023/09/20 14:47:43;;;;;;;3.92;1.88;;;;;;;;;;5015093;28;20096;-71
2023/09/20 14:50:12;;;;;;;3.80;1.60;;;;;;;;;;5015857;28;20048;-71
2023/09/20 14:52:38;;;;;;;3.72;1.80;;;;;;;;;;5015628;28;20042;-71
2023/09/20 14:55:04;;;;;;;3.65;1.83;;;;;;;;;;5014860;28;20037;-71
2023/09/20 14:57:31;;;;;;;4.05;1.55;;;;;;;;;;5014405;28;20091;-71
2023/09/20 14:59:57;;;;;;;4.47;1.67;;;;;;;;;;5007639;28;20049;-70
2023/09/20 15:02:23;;;;;;;3.80;1.55;;;;;;;;;;5011058;28;20046;-70
2023/09/20 15:04:49;;;;;;;4.55;1.60;;;;;;;;;;5013719;28;20045;-70
2023/09/20 15:07:16;;;;;;;3.05;1.55;;;;;;;;;;5011976;28;20042;-69
2023/09/20 15:09:46;;;;;;;3.00;1.40;;;;;;;;;;5012789;28;21067;-70
2023/09/20 15:12:15;;;;;;;3.08;1.45;;;;;;;;;;5010725;28;20595;-70
2023/09/20 15:14:42;;;;;;;4.30;1.40;;;;;;;;;;5004257;28;20046;-70
2023/09/20 15:17:08;;;;;;;2.10;1.52;;;;;;;;;;5011713;28;20044;-70
2023/09/20 15:19:34;;;;;;;3.60;2.08;;;;;;;;;;5011156;28;20127;-70
2023/09/20 15:22:00;;;;;;;3.33;1.60;;;;;;;;;;5013057;28;20077;-70